LFOH/LEH METAR and TAF weather

Enter ICAO airport designator
Station Type Date Time Source
LFOH METAR 2020/04/04 20:30 UTC NOAA

LFOH 042030Z AUTO 13007KT CAVOK 13/02 Q1018


Station Type Date Time Source
LFOH Decoded METAR 2020/04/04 20:30 UTC NOAA

La Heve, France (LFOH) 49-31N 000-04E 103M
Apr 04, 2020 - 04:30 PM EDT / 2020.04.04 2030 UTC
Wind: from the SE (130 degrees) at 8 MPH (7 KT):0
Visibility: greater than 7 mile(s):0
Temperature: 55 F (13 C)
Dew Point: 35 F (2 C)
Relative Humidity: 47%
Pressure (altimeter): 30.06 in. Hg (1018 hPa)
ob: LFOH 042030Z AUTO 13007KT CAVOK 13/02 Q1018
cycle: 20

Station Type Date Time Source
LFOH TAF 2020/04/02 18:43 UTC NOAA

TAF LFOH 021800Z 0218/0312 CNL

Example: see airport list